createdAt,value
2023-01-23T00:01:46.821Z,-1.96
2023-01-23T00:04:16.558Z,-1.97
2023-01-23T00:06:48.728Z,-1.95
2023-01-23T00:09:17.685Z,-1.98
2023-01-23T00:11:46.299Z,-2.01
2023-01-23T00:14:14.886Z,-2.00
2023-01-23T00:16:43.550Z,-2.00
2023-01-23T00:19:12.624Z,-2.04
2023-01-23T00:21:41.340Z,-2.00
2023-01-23T00:24:13.303Z,-1.96
2023-01-23T00:26:42.036Z,-1.97
2023-01-23T00:29:10.887Z,-1.92
2023-01-23T00:31:40.834Z,-1.95
2023-01-23T00:34:14.080Z,-1.96
2023-01-23T00:36:44.639Z,-1.96
2023-01-23T00:39:18.390Z,-1.98
2023-01-23T00:41:48.118Z,-1.98
2023-01-23T00:44:17.730Z,-1.93
2023-01-23T00:46:46.812Z,-1.93
2023-01-23T00:49:17.872Z,-1.92
2023-01-23T00:51:46.777Z,-1.87
2023-01-23T00:54:16.941Z,-1.87
2023-01-23T00:56:45.684Z,-1.84
2023-01-23T00:59:14.549Z,-1.87
2023-01-23T01:01:43.327Z,-1.87
2023-01-23T01:04:12.127Z,-1.89
2023-01-23T01:06:40.777Z,-1.89
2023-01-23T01:09:09.363Z,-1.91
2023-01-23T01:11:41.490Z,-2.00
2023-01-23T01:14:11.094Z,-2.03
2023-01-23T01:16:45.181Z,-2.04
2023-01-23T01:19:14.253Z,-2.08
2023-01-23T01:21:43.428Z,-2.14
2023-01-23T01:24:13.991Z,-2.24
2023-01-23T01:26:44.395Z,-2.32
2023-01-23T01:29:13.093Z,-2.37
2023-01-23T01:31:45.682Z,-2.46
2023-01-23T01:34:14.777Z,-2.53
2023-01-23T01:36:43.477Z,-2.53
2023-01-23T01:39:12.090Z,-2.51
2023-01-23T01:41:40.944Z,-2.54
2023-01-23T01:44:15.556Z,-2.52
2023-01-23T01:46:46.036Z,-2.53
2023-01-23T01:49:18.394Z,-2.52
2023-01-23T01:51:51.395Z,-2.51
2023-01-23T01:54:25.509Z,-2.59
2023-01-23T01:56:58.757Z,-2.66
2023-01-23T01:59:33.302Z,-2.82
2023-01-23T02:02:08.487Z,-2.86
2023-01-23T02:04:42.191Z,-2.96
2023-01-23T02:07:16.848Z,-3.07
2023-01-23T02:09:45.989Z,-3.17
2023-01-23T02:12:14.674Z,-3.17
2023-01-23T02:14:45.148Z,-3.15
2023-01-23T02:17:13.962Z,-3.20
2023-01-23T02:19:51.863Z,-3.28
2023-01-23T02:22:32.252Z,-3.33
2023-01-23T02:25:11.006Z,-3.40
2023-01-23T02:27:41.094Z,-3.50
2023-01-23T02:30:12.236Z,-3.57
2023-01-23T02:32:43.168Z,-3.49
2023-01-23T02:35:16.717Z,-3.50
2023-01-23T02:37:49.612Z,-3.46
2023-01-23T02:40:19.055Z,-3.40
2023-01-23T02:42:50.684Z,-3.26
2023-01-23T02:45:20.533Z,-3.13
2023-01-23T02:47:49.332Z,-2.98
2023-01-23T02:50:19.099Z,-2.89
2023-01-23T02:52:49.682Z,-2.83
2023-01-23T02:55:18.953Z,-2.85
2023-01-23T02:57:49.552Z,-2.88
2023-01-23T03:00:20.591Z,-2.91
2023-01-23T03:02:50.396Z,-2.95
2023-01-23T03:05:20.002Z,-2.99
2023-01-23T03:07:48.776Z,-3.11
2023-01-23T03:10:18.305Z,-3.17
2023-01-23T03:12:49.510Z,-3.29
2023-01-23T03:15:18.478Z,-3.32
2023-01-23T03:17:48.410Z,-3.34
2023-01-23T03:20:19.682Z,-3.45
2023-01-23T03:22:48.592Z,-3.55
2023-01-23T03:25:18.254Z,-3.60
2023-01-23T03:27:48.545Z,-3.70
2023-01-23T03:30:17.541Z,-3.87
2023-01-23T03:32:47.534Z,-4.00
2023-01-23T03:35:18.268Z,-3.94
2023-01-23T03:37:48.145Z,-4.02
2023-01-23T03:40:36.354Z,-4.10
2023-01-23T03:43:07.828Z,-4.13
2023-01-23T03:45:40.114Z,-4.20
2023-01-23T03:48:09.116Z,-4.15
2023-01-23T03:50:38.380Z,-4.19
2023-01-23T03:53:07.113Z,-4.16
2023-01-23T03:55:35.949Z,-4.16
2023-01-23T03:58:06.677Z,-4.21
2023-01-23T04:00:36.216Z,-4.19
2023-01-23T04:03:09.369Z,-4.20
2023-01-23T04:05:40.206Z,-4.15
2023-01-23T04:08:10.082Z,-4.14
2023-01-23T04:10:38.814Z,-4.12
2023-01-23T04:13:17.018Z,-4.20
2023-01-23T04:15:46.934Z,-4.31
2023-01-23T04:18:17.392Z,-4.63
2023-01-23T04:20:46.142Z,-4.86
2023-01-23T04:23:15.711Z,-4.98
2023-01-23T04:25:45.088Z,-5.00
2023-01-23T04:28:17.638Z,-5.07
2023-01-23T04:30:48.716Z,-5.09
2023-01-23T04:33:23.666Z,-5.08
2023-01-23T04:35:56.838Z,-5.05
2023-01-23T04:38:30.407Z,-5.00
2023-01-23T04:41:09.022Z,-4.96
2023-01-23T04:43:41.780Z,-5.03
2023-01-23T04:46:12.660Z,-5.01
2023-01-23T04:48:54.875Z,-4.78
2023-01-23T04:51:25.054Z,-4.47
2023-01-23T04:53:53.800Z,-4.45
2023-01-23T04:56:22.943Z,-4.34
2023-01-23T04:58:53.843Z,-4.27
2023-01-23T05:01:24.720Z,-4.20
2023-01-23T05:04:03.925Z,-4.19
2023-01-23T05:06:33.218Z,-4.16
2023-01-23T05:09:02.231Z,-4.11
2023-01-23T05:11:42.450Z,-4.04
2023-01-23T05:14:15.283Z,-4.00
2023-01-23T05:16:44.758Z,-3.94
2023-01-23T05:19:32.770Z,-3.76
2023-01-23T05:22:04.175Z,-3.63
2023-01-23T05:24:33.509Z,-3.54
2023-01-23T05:27:02.473Z,-3.42
2023-01-23T05:29:34.747Z,-3.37
2023-01-23T05:32:08.561Z,-3.34
2023-01-23T05:34:40.165Z,-3.29
2023-01-23T05:37:20.378Z,-3.26
2023-01-23T05:39:53.344Z,-3.20
2023-01-23T05:42:23.036Z,-3.18
2023-01-23T05:45:03.217Z,-3.07
2023-01-23T05:47:38.961Z,-3.06
2023-01-23T05:50:10.537Z,-3.05
2023-01-23T05:52:39.865Z,-2.99
2023-01-23T05:55:09.928Z,-2.93
2023-01-23T05:57:41.355Z,-2.88
2023-01-23T06:00:30.212Z,-2.78
2023-01-23T06:03:25.104Z,-2.68
2023-01-23T06:06:08.157Z,-2.65
2023-01-23T06:08:44.318Z,-2.64
2023-01-23T06:11:16.700Z,-2.60
2023-01-23T06:14:11.528Z,-2.56
2023-01-23T06:16:55.056Z,-2.51
2023-01-23T06:20:08.056Z,-2.50
2023-01-23T06:23:14.499Z,-2.49
2023-01-23T06:29:10.003Z,-2.44
2023-01-23T06:31:59.264Z,-2.39
2023-01-23T06:34:41.277Z,-2.37
2023-01-23T06:37:42.076Z,-2.37
2023-01-23T06:40:39.868Z,-2.37
2023-01-23T06:43:38.435Z,-2.35
2023-01-23T06:46:35.365Z,-2.36
2023-01-23T06:49:50.476Z,-2.33
2023-01-23T06:52:38.596Z,-2.28
2023-01-23T06:55:32.944Z,-2.25
2023-01-23T06:58:14.516Z,-2.24
2023-01-23T07:00:49.691Z,-2.22
2023-01-23T07:03:38.830Z,-2.16
2023-01-23T07:06:50.577Z,-2.15
2023-01-23T07:10:01.428Z,-2.13
2023-01-23T07:16:45.093Z,-2.06
2023-01-23T07:19:30.375Z,-1.99
2023-01-23T07:26:02.767Z,-2.03
2023-01-23T07:29:20.444Z,-2.03
2023-01-23T07:37:22.296Z,-2.02
2023-01-23T07:45:28.398Z,-2.09
2023-01-23T07:49:02.060Z,-2.06
2023-01-23T07:56:49.980Z,-2.14
2023-01-23T07:59:20.946Z,-2.16
2023-01-23T08:01:51.492Z,-2.17
2023-01-23T08:04:20.510Z,-2.12
2023-01-23T08:06:49.279Z,-2.13
2023-01-23T08:09:17.931Z,-2.03
2023-01-23T08:11:48.374Z,-1.90
2023-01-23T08:14:17.454Z,-1.80
2023-01-23T08:16:51.108Z,-1.82
2023-01-23T08:19:20.510Z,-1.78
2023-01-23T08:21:49.266Z,-1.71
2023-01-23T08:24:18.329Z,-1.69
2023-01-23T08:26:47.542Z,-1.64
2023-01-23T08:29:16.211Z,-1.66
2023-01-23T08:31:46.396Z,-1.58
2023-01-23T08:34:15.236Z,-1.54
2023-01-23T08:36:44.197Z,-1.44
2023-01-23T08:39:12.941Z,-1.34
2023-01-23T08:41:41.607Z,-1.24
2023-01-23T08:44:10.272Z,-1.23
2023-01-23T08:46:39.022Z,-1.16
2023-01-23T08:49:11.195Z,-1.17
2023-01-23T08:51:40.235Z,-1.11
2023-01-23T08:54:09.006Z,-1.04
2023-01-23T08:56:37.887Z,-1.03
2023-01-23T08:59:06.653Z,-0.96
2023-01-23T09:01:35.704Z,-0.96
2023-01-23T09:04:04.377Z,-0.88
2023-01-23T09:06:34.387Z,-0.79
2023-01-23T09:09:03.319Z,-0.77
2023-01-23T09:11:32.542Z,-0.64
2023-01-23T09:14:01.349Z,-0.65
2023-01-23T09:16:30.069Z,-0.59
2023-01-23T09:18:58.801Z,-0.54
2023-01-23T09:21:27.797Z,-0.56
2023-01-23T09:23:58.624Z,-0.56
2023-01-23T09:26:27.307Z,-0.51
2023-01-23T09:28:56.842Z,-0.51
2023-01-23T09:31:25.752Z,-0.58
2023-01-23T09:33:54.580Z,-0.65
2023-01-23T09:36:37.582Z,-0.62
2023-01-23T09:39:12.602Z,-0.64
2023-01-23T09:41:42.429Z,-0.60
2023-01-23T09:44:19.286Z,-0.59
2023-01-23T09:46:51.960Z,-0.52
2023-01-23T09:49:26.956Z,-0.54
2023-01-23T09:52:01.363Z,-0.54
2023-01-23T09:54:38.480Z,-0.44
2023-01-23T09:57:15.961Z,-0.44
2023-01-23T10:00:00.398Z,-0.23
2023-01-23T10:02:30.224Z,-0.14
2023-01-23T10:05:02.010Z,0.04
2023-01-23T10:07:50.672Z,0.06
2023-01-23T10:10:57.314Z,0.38
2023-01-23T10:13:49.389Z,0.32
2023-01-23T10:16:49.915Z,0.06
2023-01-23T10:19:37.609Z,0.05
2023-01-23T10:22:22.566Z,-0.04
2023-01-23T10:24:55.013Z,-0.06
2023-01-23T10:27:27.554Z,0.04
2023-01-23T10:30:00.726Z,0.24
2023-01-23T10:32:44.045Z,0.59
2023-01-23T10:35:16.817Z,0.69
2023-01-23T10:37:50.722Z,0.69
2023-01-23T10:40:41.949Z,1.05
2023-01-23T10:43:18.352Z,1.28
2023-01-23T10:45:48.462Z,1.21
2023-01-23T10:48:42.168Z,1.15
2023-01-23T10:51:35.472Z,0.98
2023-01-23T10:54:16.947Z,0.79
2023-01-23T10:56:58.428Z,0.76
2023-01-23T10:59:34.362Z,0.69
2023-01-23T11:02:23.019Z,0.71
2023-01-23T11:04:53.226Z,0.84
2023-01-23T11:07:23.699Z,0.92
2023-01-23T11:09:56.664Z,0.97
2023-01-23T11:12:27.396Z,1.17
2023-01-23T11:15:23.942Z,1.27
2023-01-23T11:17:54.592Z,1.44
2023-01-23T11:20:29.360Z,1.89
2023-01-23T11:23:07.245Z,2.11
2023-01-23T11:25:40.245Z,1.92
2023-01-23T11:28:23.762Z,1.77
2023-01-23T11:31:12.259Z,1.60
2023-01-23T11:33:48.426Z,1.49
2023-01-23T11:36:40.166Z,1.79
2023-01-23T11:39:20.335Z,1.97
2023-01-23T11:41:49.836Z,2.00
2023-01-23T11:44:22.669Z,2.17
2023-01-23T11:47:25.405Z,2.21
2023-01-23T11:50:28.050Z,2.28
2023-01-23T11:53:04.184Z,2.55
2023-01-23T11:56:12.130Z,2.50
2023-01-23T11:58:57.317Z,2.43
2023-01-23T12:01:33.244Z,2.42
2023-01-23T12:04:35.081Z,2.63
2023-01-23T12:07:17.405Z,2.50
2023-01-23T12:10:04.435Z,2.41
2023-01-23T12:13:02.131Z,2.41
2023-01-23T12:15:43.463Z,2.36
2023-01-23T12:18:25.859Z,2.16
2023-01-23T12:21:03.086Z,2.51
2023-01-23T12:23:58.133Z,2.43
2023-01-23T12:26:30.528Z,2.52
2023-01-23T12:29:40.224Z,2.53
2023-01-23T12:32:32.031Z,2.39
2023-01-23T12:35:10.679Z,2.38
2023-01-23T12:37:56.003Z,2.89
2023-01-23T12:40:32.969Z,3.23
2023-01-23T12:43:06.958Z,3.11
2023-01-23T12:45:39.151Z,4.27
2023-01-23T12:48:13.241Z,4.05
2023-01-23T12:50:47.222Z,3.95
2023-01-23T12:53:18.137Z,4.99
2023-01-23T12:55:58.434Z,4.65
2023-01-23T12:58:30.405Z,4.38
2023-01-23T13:01:12.195Z,3.95
2023-01-23T13:04:03.814Z,3.92
2023-01-23T13:06:51.575Z,4.31
2023-01-23T13:09:36.069Z,5.33
2023-01-23T13:12:21.867Z,4.48
2023-01-23T13:15:10.557Z,5.14
2023-01-23T13:17:48.247Z,4.39
2023-01-23T13:20:44.193Z,4.92
2023-01-23T13:23:26.902Z,4.35
2023-01-23T13:26:31.610Z,3.72
2023-01-23T13:29:04.012Z,4.77
2023-01-23T13:31:45.373Z,4.77
2023-01-23T13:34:37.194Z,5.35
2023-01-23T14:21:58.821Z,2.39
2023-01-23T14:24:42.543Z,2.16
2023-01-23T14:27:29.403Z,2.00
2023-01-23T14:30:00.865Z,1.85
2023-01-23T14:32:33.191Z,1.69
2023-01-23T14:35:02.026Z,1.54
2023-01-23T14:37:35.896Z,1.45
2023-01-23T14:40:25.750Z,1.46
2023-01-23T14:43:02.048Z,1.44
2023-01-23T14:45:33.744Z,1.49
2023-01-23T14:48:08.892Z,1.53
2023-01-23T14:50:37.974Z,1.52
2023-01-23T14:53:13.390Z,1.55
2023-01-23T14:55:49.833Z,1.55
2023-01-23T14:58:24.755Z,1.54
2023-01-23T15:00:55.729Z,1.56
2023-01-23T15:03:44.388Z,1.46
2023-01-23T15:06:21.495Z,1.43
2023-01-23T15:08:51.032Z,1.35
2023-01-23T15:11:27.737Z,1.29
2023-01-23T15:14:01.607Z,1.24
2023-01-23T15:16:38.000Z,1.25
2023-01-23T15:19:19.584Z,1.19
2023-01-23T15:21:49.192Z,1.21
2023-01-23T15:24:30.064Z,1.22
2023-01-23T15:27:31.617Z,1.23
2023-01-23T15:30:43.469Z,1.14
2023-01-23T15:33:29.782Z,1.12
2023-01-23T15:36:08.272Z,1.03
2023-01-23T15:38:38.157Z,0.91
2023-01-23T15:41:11.328Z,0.85
2023-01-23T15:43:41.043Z,0.77
2023-01-23T15:46:12.215Z,0.67
2023-01-23T15:48:40.671Z,0.62
2023-01-23T15:51:16.566Z,0.63
2023-01-23T15:53:44.888Z,0.68
2023-01-23T15:56:28.990Z,0.66
2023-01-23T15:58:59.202Z,0.58
2023-01-23T16:01:32.232Z,0.52
2023-01-23T16:04:00.704Z,0.49
2023-01-23T16:06:30.068Z,0.50
2023-01-23T16:09:05.283Z,0.45
2023-01-23T16:11:37.479Z,0.36
2023-01-23T16:14:07.539Z,0.32
2023-01-23T16:16:36.223Z,0.40
2023-01-23T16:19:05.014Z,0.41
2023-01-23T16:21:34.119Z,0.39
2023-01-23T16:24:03.546Z,0.36
2023-01-23T16:26:32.768Z,0.33
2023-01-23T16:29:13.215Z,0.33
2023-01-23T16:31:43.681Z,0.36
2023-01-23T16:34:12.117Z,0.35
2023-01-23T16:36:41.750Z,0.36
2023-01-23T16:41:54.675Z,0.32
2023-01-23T16:44:25.797Z,0.32
2023-01-23T16:46:55.592Z,0.32
2023-01-23T16:49:24.354Z,0.38
2023-01-23T16:51:59.635Z,0.38
2023-01-23T16:54:28.672Z,0.36
2023-01-23T16:56:58.734Z,0.36
2023-01-23T16:59:36.846Z,0.29
2023-01-23T17:02:21.349Z,0.30
2023-01-23T17:04:50.095Z,0.31
2023-01-23T17:07:20.759Z,0.31
2023-01-23T17:09:50.267Z,0.31
2023-01-23T17:12:23.314Z,0.30
2023-01-23T17:14:52.972Z,0.29
2023-01-23T17:17:32.831Z,0.34
2023-01-23T17:20:02.826Z,0.30
2023-01-23T17:22:38.219Z,0.27
2023-01-23T17:25:14.745Z,0.30
2023-01-23T17:27:45.801Z,0.29
2023-01-23T17:30:24.088Z,0.26
2023-01-23T17:32:58.255Z,0.24
2023-01-23T17:35:34.136Z,0.18
2023-01-23T17:38:04.037Z,0.21
2023-01-23T17:40:32.732Z,0.18
2023-01-23T17:43:01.603Z,0.17
2023-01-23T17:45:29.993Z,0.20
2023-01-23T17:48:00.082Z,0.23
2023-01-23T17:50:28.729Z,0.26
2023-01-23T17:52:57.431Z,0.22
2023-01-23T17:55:28.907Z,0.24
2023-01-23T17:57:57.324Z,0.17
2023-01-23T18:00:27.509Z,0.11
2023-01-23T18:03:01.698Z,0.11
2023-01-23T18:05:30.483Z,0.13
2023-01-23T18:07:58.772Z,0.16
2023-01-23T18:10:29.940Z,0.15
2023-01-23T18:13:17.435Z,0.15
2023-01-23T18:16:06.671Z,0.19
2023-01-23T18:18:40.564Z,0.15
2023-01-23T18:21:18.083Z,0.18
2023-01-23T18:23:51.818Z,0.17
2023-01-23T18:26:37.625Z,0.19
2023-01-23T18:29:23.236Z,0.19
2023-01-23T18:32:19.100Z,0.21
2023-01-23T18:34:59.593Z,0.22
2023-01-23T18:37:39.980Z,0.14
2023-01-23T18:40:18.411Z,0.15
2023-01-23T18:42:59.938Z,0.15
2023-01-23T18:45:29.776Z,0.13
2023-01-23T18:47:59.220Z,0.18
2023-01-23T18:50:33.259Z,0.17
2023-01-23T18:53:20.318Z,0.15
2023-01-23T18:56:03.102Z,0.14
2023-01-23T18:59:06.223Z,0.16
2023-01-23T19:01:54.317Z,0.17
2023-01-23T19:04:34.991Z,0.16
2023-01-23T19:07:15.225Z,0.14
2023-01-23T19:09:46.571Z,0.14
2023-01-23T19:12:28.686Z,0.14
2023-01-23T19:15:25.069Z,0.13
2023-01-23T19:18:07.529Z,0.10
2023-01-23T19:20:48.238Z,0.07
2023-01-23T19:23:37.211Z,0.07
2023-01-23T19:26:06.841Z,0.06
2023-01-23T19:28:38.457Z,0.04
2023-01-23T19:31:11.085Z,0.05
2023-01-23T19:33:39.840Z,0.05
2023-01-23T19:36:11.383Z,0.06
2023-01-23T19:38:41.373Z,0.03
2023-01-23T19:41:20.604Z,0.05
2023-01-23T19:43:52.270Z,0.05
2023-01-23T19:46:22.662Z,0.07
2023-01-23T19:48:51.562Z,0.09
2023-01-23T19:51:22.777Z,0.07
2023-01-23T19:53:52.681Z,0.07
2023-01-23T19:56:21.771Z,0.04
2023-01-23T19:58:50.564Z,0.07
2023-01-23T20:01:28.346Z,0.08
2023-01-23T20:03:56.768Z,0.07
2023-01-23T20:06:26.546Z,0.07
2023-01-23T20:08:56.574Z,0.05
2023-01-23T20:11:25.339Z,0.04
2023-01-23T20:13:53.953Z,0.02
2023-01-23T20:16:26.389Z,0.04
2023-01-23T20:18:56.198Z,0.06
2023-01-23T20:21:26.409Z,0.06
2023-01-23T20:23:57.638Z,0.05
2023-01-23T20:26:26.554Z,0.06
2023-01-23T20:28:55.680Z,0.10
2023-01-23T20:31:24.393Z,0.04
2023-01-23T20:33:53.484Z,0.09
2023-01-23T20:36:22.201Z,0.04
2023-01-23T20:38:50.967Z,0.11
2023-01-23T20:41:22.233Z,0.07
2023-01-23T20:43:51.024Z,0.06
2023-01-23T20:46:23.535Z,0.03
2023-01-23T20:48:52.215Z,0.03
2023-01-23T20:51:20.999Z,0.04
2023-01-23T20:53:49.380Z,0.07
2023-01-23T20:56:27.388Z,0.01
2023-01-23T20:59:14.722Z,0.04
2023-01-23T21:02:02.283Z,0.08
2023-01-23T21:04:34.548Z,0.08
2023-01-23T21:07:03.913Z,0.06
2023-01-23T21:09:32.707Z,0.07
2023-01-23T21:12:02.605Z,0.09
2023-01-23T21:14:32.284Z,0.04
2023-01-23T21:17:01.046Z,0.05
2023-01-23T21:19:29.667Z,0.02
2023-01-23T21:21:58.631Z,0.00
2023-01-23T21:24:28.678Z,0.03
2023-01-23T21:26:57.434Z,0.03
2023-01-23T21:29:27.141Z,0.09
2023-01-23T21:31:57.488Z,0.01
2023-01-23T21:34:27.051Z,0.03
2023-01-23T21:36:55.455Z,0.06
2023-01-23T21:39:24.136Z,0.08
2023-01-23T21:41:52.923Z,0.12
2023-01-23T21:44:21.665Z,0.17
2023-01-23T21:46:51.696Z,0.13
2023-01-23T21:49:20.534Z,0.09
2023-01-23T21:51:48.867Z,0.06
2023-01-23T21:54:17.322Z,0.05
2023-01-23T21:56:46.340Z,0.06
2023-01-23T21:59:18.727Z,0.02
2023-01-23T22:01:46.867Z,-0.06
2023-01-23T22:04:22.475Z,-0.10
2023-01-23T22:06:55.374Z,-0.14
2023-01-23T22:09:26.406Z,-0.12
2023-01-23T22:11:55.824Z,-0.06
2023-01-23T22:14:24.370Z,-0.06
2023-01-23T22:19:56.781Z,-0.04
2023-01-23T22:22:25.203Z,-0.04
2023-01-23T22:24:53.904Z,-0.07
2023-01-23T22:27:23.342Z,-0.03
2023-01-23T22:29:51.738Z,-0.01
2023-01-23T22:32:20.315Z,0.04
2023-01-23T22:34:48.680Z,0.06
2023-01-23T22:37:19.241Z,0.08
2023-01-23T22:39:49.814Z,0.07
2023-01-23T22:42:22.418Z,0.07
2023-01-23T22:44:50.750Z,0.07
2023-01-23T22:47:19.146Z,0.07
2023-01-23T22:49:47.485Z,0.10
2023-01-23T22:52:17.813Z,0.14
2023-01-23T22:54:46.195Z,0.12
2023-01-23T22:57:14.439Z,0.11
2023-01-23T22:59:43.235Z,0.13
2023-01-23T23:02:11.692Z,0.15
2023-01-23T23:04:40.048Z,0.12
2023-01-23T23:07:08.467Z,0.10
2023-01-23T23:09:38.257Z,0.14
2023-01-23T23:12:06.896Z,0.13
2023-01-23T23:14:35.167Z,0.14
2023-01-23T23:17:03.737Z,0.15
2023-01-23T23:19:33.116Z,0.12
2023-01-23T23:22:01.350Z,0.12
2023-01-23T23:24:30.210Z,0.14
2023-01-23T23:27:00.023Z,0.16
2023-01-23T23:29:28.480Z,0.15
2023-01-23T23:31:57.213Z,0.16
2023-01-23T23:34:25.693Z,0.17
2023-01-23T23:36:54.033Z,0.12
2023-01-23T23:39:25.921Z,0.14
2023-01-23T23:41:54.340Z,0.16
2023-01-23T23:44:24.454Z,0.16
2023-01-23T23:46:53.460Z,0.16
2023-01-23T23:49:22.948Z,0.16
2023-01-23T23:51:51.515Z,0.11
2023-01-23T23:54:20.156Z,0.11
2023-01-23T23:56:48.681Z,0.10
2023-01-23T23:59:17.545Z,0.10
